Time;durP1;ratioP1;P1;durP2;ratioP2;P2;SDS_P1;SDS_P2;PMS_P1;PMS_P2;Temp;Humidity;BMP_temperature;BMP_pressure;BME280_temperature;BME280_humidity;BME280_pressure;Samples;Min_cycle;Max_cycle;Signal;HPM_P1;HPM_P2
2022/05/29 00:00:41;;;;;;;2.00;1.73;;;;;;;26.87;46.15;100903.97;4154428;28;20437;-68
2022/05/29 00:02:43;;;;;;;2.10;2.00;;;;;;;26.87;46.35;100901.16;4165325;28;20038;-67
2022/05/29 00:04:47;;;;;;;2.05;1.90;;;;;;;26.88;46.15;100910.41;4167927;28;20018;-68
2022/05/29 00:06:53;;;;;;;2.05;1.85;;;;;;;26.86;46.23;100911.56;4158526;28;20464;-67
2022/05/29 00:08:58;;;;;;;1.77;1.67;;;;;;;26.86;46.41;100910.75;4167357;28;20135;-65
2022/05/29 00:11:06;;;;;;;2.13;1.92;;;;;;;26.88;46.29;100918.84;4175961;28;20041;-66
2022/05/29 00:13:11;;;;;;;2.15;1.70;;;;;;;26.75;46.33;100895.31;4169641;28;20068;-66
2022/05/29 00:15:16;;;;;;;2.65;2.13;;;;;;;26.87;46.52;100920.81;4193015;28;20546;-69
2022/05/29 00:17:19;;;;;;;2.13;1.92;;;;;;;26.85;46.24;100925.94;4184345;28;20451;-68
2022/05/29 00:19:21;;;;;;;1.88;1.77;;;;;;;26.84;46.49;100932.69;4182448;28;20041;-68
2022/05/29 00:21:23;;;;;;;2.28;2.03;;;;;;;26.83;46.28;100926.25;4183451;28;20041;-68
2022/05/29 00:23:26;;;;;;;1.80;1.67;;;;;;;26.83;46.58;100933.84;4176452;28;20042;-68
2022/05/29 00:25:28;;;;;;;2.53;2.33;;;;;;;26.82;46.52;100933.00;4166719;28;20049;-68
2022/05/29 00:27:29;;;;;;;2.47;1.80;;;;;;;26.83;46.38;100945.88;4165762;28;20477;-68
2022/05/29 00:29:35;;;;;;;1.98;1.83;;;;;;;26.81;46.27;100936.16;4166688;28;20049;-68
2022/05/29 00:31:39;;;;;;;1.83;1.73;;;;;;;26.78;46.60;100937.59;4167314;28;20025;-66
2022/05/29 00:33:41;;;;;;;2.00;1.90;;;;;;;26.81;46.44;100942.59;4166212;28;20049;-68
2022/05/29 00:35:42;;;;;;;1.80;1.70;;;;;;;26.80;46.56;100946.56;4166491;28;20103;-67
2022/05/29 00:37:44;;;;;;;2.10;1.90;;;;;;;26.80;46.49;100949.38;4165881;28;20619;-68
2022/05/29 00:39:48;;;;;;;2.03;1.83;;;;;;;26.79;46.49;100950.50;4165168;28;20041;-67
2022/05/29 00:41:49;;;;;;;2.22;2.03;;;;;;;26.81;46.63;100953.81;4166059;28;20033;-68
2022/05/29 00:44:26;;;;;;;1.90;1.80;;;;;;;26.78;46.57;100946.03;4166167;28;20025;-68
2022/05/29 00:46:30;;;;;;;2.03;1.83;;;;;;;26.81;46.27;100953.81;4165743;28;20033;-68
2022/05/29 00:48:31;;;;;;;1.98;1.88;;;;;;;26.77;46.69;100947.19;4165653;28;20099;-68
2022/05/29 00:50:33;;;;;;;3.35;2.03;;;;;;;26.78;46.26;100953.63;4166637;28;20160;-68
2022/05/29 00:52:34;;;;;;;2.10;1.95;;;;;;;26.81;46.51;100961.41;4147600;28;20108;-68
2022/05/29 00:54:44;;;;;;;2.30;2.10;;;;;;;26.76;46.58;100951.16;4166741;28;20029;-67
2022/05/29 00:56:52;;;;;;;2.10;1.95;;;;;;;26.81;46.65;100964.22;4166023;28;20037;-67
2022/05/29 00:58:58;;;;;;;2.10;1.90;;;;;;;26.81;46.72;100965.06;4148541;28;20103;-67
2022/05/29 01:01:02;;;;;;;1.85;1.75;;;;;;;26.76;46.66;100962.38;4147991;28;20100;-67
2022/05/29 01:03:05;;;;;;;2.38;1.73;;;;;;;26.80;46.70;100974.63;4166555;28;20045;-67
2022/05/29 01:05:11;;;;;;;1.70;1.60;;;;;;;26.77;46.73;100975.25;4166614;28;20473;-68
2022/05/29 01:07:17;;;;;;;1.75;1.65;;;;;;;26.80;46.56;100985.00;4166488;28;20034;-67
2022/05/29 01:09:19;;;;;;;1.90;1.80;;;;;;;26.76;46.66;100979.22;4165965;28;20041;-68
2022/05/29 01:11:49;;;;;;;1.80;1.70;;;;;;;26.76;46.47;100992.44;4166309;28;20099;-67
2022/05/29 01:14:08;;;;;;;2.05;1.85;;;;;;;26.80;46.44;100996.22;4165287;28;20037;-68
2022/05/29 01:16:28;;;;;;;1.90;1.80;;;;;;;26.79;46.60;101008.63;4166837;28;20113;-67
2022/05/29 01:19:14;;;;;;;1.42;1.33;;;;;;;26.78;46.33;101007.78;4165866;28;20045;-67
2022/05/29 01:21:34;;;;;;;1.90;1.80;;;;;;;26.81;46.77;101020.38;4141657;28;20416;-66
2022/05/29 01:23:38;;;;;;;2.58;2.38;;;;;;;26.81;46.68;101026.81;4167433;28;20041;-67
2022/05/29 01:26:08;;;;;;;1.90;1.80;;;;;;;26.79;46.50;101034.72;4166246;28;20087;-68
2022/05/29 01:28:30;;;;;;;2.22;2.03;;;;;;;26.80;46.56;101044.81;4163432;28;20481;-67
2022/05/29 01:30:44;;;;;;;2.03;1.92;;;;;;;26.80;46.62;101050.44;4165968;28;20477;-67
2022/05/29 01:33:01;;;;;;;2.03;1.90;;;;;;;26.80;46.73;101058.00;4165321;28;20061;-67
2022/05/29 01:35:13;;;;;;;2.47;2.15;;;;;;;26.80;46.51;101064.47;4165854;28;20069;-69
2022/05/29 01:37:22;;;;;;;2.08;1.95;;;;;;;26.80;46.62;101069.22;4167316;28;20030;-68
2022/05/29 01:39:23;;;;;;;2.28;1.95;;;;;;;26.81;46.62;101070.91;4170104;28;20095;-68
2022/05/29 01:41:43;;;;;;;2.40;1.90;;;;;;;26.70;46.47;101059.06;4182046;28;20199;-69
2022/05/29 01:44:06;;;;;;;2.22;2.00;;;;;;;26.77;46.83;101090.38;4175092;28;20103;-68
2022/05/29 01:46:15;;;;;;;2.53;2.33;;;;;;;26.79;46.50;101084.41;4165338;28;20075;-66
2022/05/29 01:48:18;;;;;;;1.70;1.60;;;;;;;26.79;46.81;101092.84;4165557;28;20432;-66
2022/05/29 01:50:26;;;;;;;2.00;1.80;;;;;;;26.78;46.40;101094.81;4163430;28;20076;-66
2022/05/29 01:52:35;;;;;;;1.80;1.70;;;;;;;26.78;46.56;101103.25;4154497;28;20038;-67
2022/05/29 01:54:42;;;;;;;2.33;2.13;;;;;;;26.78;46.56;101106.06;4163341;28;20045;-67
2022/05/29 01:56:57;;;;;;;2.22;2.03;;;;;;;26.68;46.70;101089.47;4166562;28;20046;-66
2022/05/29 01:59:00;;;;;;;;;;;;;;;26.77;46.43;101109.19;4166360;28;20551;-68
2022/05/29 02:01:04;;;;;;;2.40;2.20;;;;;;;26.78;46.62;101094.00;4169295;28;19921;-68
2022/05/29 02:03:14;;;;;;;2.10;2.00;;;;;;;26.80;46.33;101106.59;4178467;28;20435;-67
2022/05/29 02:05:21;;;;;;;2.50;2.30;;;;;;;26.81;46.32;101107.41;4176742;28;20097;-67
2022/05/29 02:09:54;;;;;;;;;;;;;;;26.78;46.86;101114.47;4184013;28;20110;-67
2022/05/29 02:12:01;;;;;;;2.10;1.90;;;;;;;26.79;46.58;101107.72;4181954;28;19958;-68
2022/05/29 02:14:07;;;;;;;2.30;2.10;;;;;;;26.81;46.65;101124.25;4181801;28;20095;-67
2022/05/29 02:16:44;;;;;;;2.20;2.00;;;;;;;26.78;46.54;101128.50;4177787;28;20675;-67
2022/05/29 02:19:06;;;;;;;2.40;2.20;;;;;;;26.79;46.83;101124.56;4165411;28;20042;-67
2022/05/29 02:21:14;;;;;;;2.47;2.00;;;;;;;26.79;46.59;101135.78;4165109;28;20045;-67
2022/05/29 02:23:39;;;;;;;2.00;1.80;;;;;;;26.75;46.67;101133.94;4165034;28;20099;-67
2022/05/29 02:25:40;;;;;;;2.10;2.00;;;;;;;26.78;46.52;101139.75;4165592;28;20042;-67
2022/05/29 02:28:21;;;;;;;1.85;1.75;;;;;;;26.74;46.73;101138.72;4164349;28;20041;-67
2022/05/29 02:30:29;;;;;;;2.22;1.90;;;;;;;26.78;46.36;101145.34;4115619;28;20114;-67
2022/05/29 02:33:15;;;;;;;2.33;2.13;;;;;;;26.76;46.52;101138.41;4147638;28;20038;-67
2022/05/29 02:35:29;;;;;;;2.20;2.00;;;;;;;26.76;46.68;101144.84;4128342;28;20099;-67
2022/05/29 02:38:03;;;;;;;2.28;2.08;;;;;;;26.76;46.54;101139.25;4164327;28;20069;-67
2022/05/29 02:40:29;;;;;;;1.88;1.77;;;;;;;26.79;46.63;101146.19;4164796;28;20037;-67
2022/05/29 02:42:42;;;;;;;1.80;1.70;;;;;;;26.77;46.63;101140.91;4165361;28;20103;-67
2022/05/29 02:45:05;;;;;;;1.80;1.70;;;;;;;26.76;46.64;101144.84;4166624;28;20037;-67
2022/05/29 02:47:39;;;;;;;1.90;1.80;;;;;;;26.74;46.46;101147.13;4180911;28;20040;-67
2022/05/29 02:49:53;;;;;;;1.80;1.70;;;;;;;26.76;46.44;101158.91;4143106;28;20095;-68
2022/05/29 02:51:59;;;;;;;2.00;1.90;;;;;;;26.73;46.65;101147.47;4164285;28;20091;-68
2022/05/29 02:54:01;;;;;;;1.98;1.88;;;;;;;26.77;46.62;101154.94;4163474;28;20103;-68
2022/05/29 02:56:06;;;;;;;2.13;1.92;;;;;;;26.76;46.69;101167.31;4164219;28;20179;-68
2022/05/29 02:58:18;;;;;;;1.98;1.88;;;;;;;26.72;46.59;101157.03;4164542;28;20041;-68
2022/05/29 03:00:20;;;;;;;2.28;2.08;;;;;;;26.77;46.65;101168.16;4164436;28;20473;-68
2022/05/29 03:02:48;;;;;;;1.90;1.70;;;;;;;26.75;46.54;101168.44;4164076;28;20103;-67
2022/05/29 03:04:54;;;;;;;1.83;1.73;;;;;;;26.68;46.26;101151.22;4150467;28;20042;-67
2022/05/29 03:07:13;;;;;;;1.70;1.60;;;;;;;26.75;46.79;101176.84;4163738;28;20049;-67
2022/05/29 03:09:52;;;;;;;2.30;2.10;;;;;;;26.75;46.62;101173.22;4164273;28;20123;-67
2022/05/29 03:11:54;;;;;;;1.90;1.70;;;;;;;26.77;46.43;101177.41;4179582;28;20045;-67
2022/05/29 03:14:05;;;;;;;1.85;1.75;;;;;;;26.75;46.74;101179.66;4180708;28;20049;-68
2022/05/29 03:16:16;;;;;;;1.92;1.83;;;;;;;26.76;46.63;101181.34;4180298;28;20041;-67
2022/05/29 03:18:35;;;;;;;2.00;1.85;;;;;;;26.75;46.51;101190.06;4180172;28;20037;-67
2022/05/29 03:20:59;;;;;;;1.77;1.67;;;;;;;26.73;46.64;101193.19;4173754;28;20045;-67
2022/05/29 03:23:19;;;;;;;1.80;1.70;;;;;;;26.74;46.70;101189.25;4164234;28;20091;-68
2022/05/29 03:25:31;;;;;;;2.03;1.90;;;;;;;26.72;46.63;101197.16;4163591;28;20092;-68
2022/05/29 03:27:53;;;;;;;2.05;1.92;;;;;;;26.68;46.63;101196.13;4164351;28;20025;-68
2022/05/29 03:30:05;;;;;;;1.80;1.70;;;;;;;26.75;46.44;101201.31;4164018;28;20103;-68
2022/05/29 03:32:09;;;;;;;2.25;2.05;;;;;;;26.68;46.46;101196.13;4163323;28;20500;-68
2022/05/29 03:34:13;;;;;;;2.20;2.00;;;;;;;26.75;46.73;101204.94;4163388;28;20045;-68
2022/05/29 03:36:18;;;;;;;2.00;1.90;;;;;;;26.74;46.56;101208.91;4163865;28;20088;-67
2022/05/29 03:38:21;;;;;;;2.28;2.08;;;;;;;26.75;46.48;101213.34;4163745;28;20041;-66
2022/05/29 03:40:27;;;;;;;1.88;1.77;;;;;;;26.73;46.39;101201.63;4163637;28;20362;-68
2022/05/29 03:42:28;;;;;;;2.08;1.88;;;;;;;26.75;46.45;101215.34;4163191;28;20099;-67
2022/05/29 03:44:29;;;;;;;2.10;1.90;;;;;;;26.73;46.59;101221.28;4164105;28;20429;-67
2022/05/29 03:46:31;;;;;;;2.00;1.90;;;;;;;26.67;46.46;101214.13;4167144;28;20049;-67
2022/05/29 03:48:32;;;;;;;2.08;1.95;;;;;;;26.63;46.73;101203.84;4176372;28;20040;-67
2022/05/29 03:50:36;;;;;;;1.75;1.65;;;;;;;26.71;46.63;101226.38;4182487;28;20045;-67
2022/05/29 03:52:41;;;;;;;1.67;1.58;;;;;;;26.73;46.60;101226.06;4182872;28;20122;-66
2022/05/29 03:54:51;;;;;;;2.15;2.00;;;;;;;26.73;46.67;101226.88;4183180;28;20098;-67
2022/05/29 03:56:55;;;;;;;2.30;2.10;;;;;;;26.74;46.46;101231.34;4179515;28;20067;-66
2022/05/29 03:58:57;;;;;;;2.70;1.90;;;;;;;26.74;46.71;101227.72;4166806;28;20045;-68
2022/05/29 04:01:08;;;;;;;2.10;1.90;;;;;;;26.74;46.66;101234.16;4166038;28;20103;-67
2022/05/29 04:03:10;;;;;;;1.95;1.85;;;;;;;26.74;46.48;101239.78;4169656;28;20045;-66
2022/05/29 04:05:19;;;;;;;1.45;1.35;;;;;;;26.72;46.63;101239.28;4169656;28;20034;-67
2022/05/29 04:12:03;;;;;;;2.00;1.80;;;;;;;26.74;46.43;101251.00;4169437;28;20041;-66
2022/05/29 04:12:05;;;;;;;1.60;1.50;;;;;;;26.74;46.23;101259.44;4170379;28;20079;-66
2022/05/29 04:14:10;;;;;;;2.20;2.00;;;;;;;26.74;46.51;101251.00;4148928;28;20119;-67
2022/05/29 04:16:11;;;;;;;1.98;1.88;;;;;;;26.73;46.50;101263.38;4167152;28;20037;-67
2022/05/29 04:18:15;;;;;;;1.80;1.70;;;;;;;26.71;46.58;101250.78;4167152;28;20104;-67
2022/05/29 04:20:18;;;;;;;1.73;1.63;;;;;;;26.74;46.36;101259.44;4171359;28;20045;-66
2022/05/29 04:22:22;;;;;;;1.92;1.80;;;;;;;26.72;46.55;101263.72;4184881;28;20447;-66
2022/05/29 04:24:24;;;;;;;2.05;1.95;;;;;;;26.74;46.70;101272.63;4152431;28;20050;-68
2022/05/29 04:26:28;;;;;;;2.75;1.88;;;;;;;26.74;46.58;101273.47;4168171;28;20033;-68
2022/05/29 04:28:29;;;;;;;1.70;1.60;;;;;;;26.72;46.35;101275.78;4187279;28;20067;-68
2022/05/29 04:30:32;;;;;;;1.90;1.80;;;;;;;26.72;46.54;101270.16;4180080;28;20041;-67
2022/05/29 04:34:56;;;;;;;1.88;1.77;;;;;;;26.75;46.48;101279.91;4172850;28;20072;-67
2022/05/29 04:36:58;;;;;;;1.73;1.63;;;;;;;26.65;46.50;101264.13;4171731;28;20037;-66
2022/05/29 04:39:03;;;;;;;2.17;2.03;;;;;;;26.75;46.29;101283.53;4170886;28;20103;-66
2022/05/29 04:41:09;;;;;;;1.70;1.60;;;;;;;26.74;46.39;101287.50;4174417;28;20033;-68
2022/05/29 04:43:12;;;;;;;1.65;1.55;;;;;;;26.64;46.67;101270.88;4169937;28;20041;-68
2022/05/29 04:45:14;;;;;;;2.00;1.80;;;;;;;26.73;46.30;101283.03;4187466;28;20417;-67
2022/05/29 04:47:16;;;;;;;1.92;1.83;;;;;;;26.74;46.37;101287.50;4184737;28;20475;-65
2022/05/29 04:49:18;;;;;;;1.90;1.75;;;;;;;26.73;46.50;101294.28;4169039;28;20033;-67
2022/05/29 04:51:20;;;;;;;1.88;1.77;;;;;;;26.73;46.39;101287.81;4171145;28;20042;-67
2022/05/29 04:53:25;;;;;;;1.85;1.75;;;;;;;26.73;46.59;101294.28;4179609;28;20037;-67
2022/05/29 04:55:29;;;;;;;;;;;;;;;26.71;46.68;101299.38;4185867;28;20041;-65
2022/05/29 04:57:31;;;;;;;1.80;1.70;;;;;;;26.77;46.46;101306.53;4168436;28;19938;-67
2022/05/29 04:59:33;;;;;;;1.58;1.48;;;;;;;26.75;46.45;101300.38;4168527;28;20508;-68
2022/05/29 05:01:35;;;;;;;1.73;1.63;;;;;;;26.76;46.56;101302.06;4152191;28;20042;-68
2022/05/29 05:03:37;;;;;;;1.42;1.33;;;;;;;26.73;46.42;101299.88;4171197;28;20068;-66
2022/05/29 05:05:38;;;;;;;1.77;1.67;;;;;;;26.74;46.59;101304.34;4155574;28;20064;-66
2022/05/29 05:07:42;;;;;;;1.60;1.50;;;;;;;26.74;46.42;101307.16;4185859;28;20037;-66
2022/05/29 05:09:44;;;;;;;1.92;1.75;;;;;;;26.73;46.28;101299.88;4185428;28;20037;-68
2022/05/29 05:11:50;;;;;;;1.63;1.52;;;;;;;26.72;46.67;101295.41;4186022;28;20037;-67
2022/05/29 05:13:52;;;;;;;1.63;1.52;;;;;;;26.73;46.43;101299.88;4170390;28;20099;-65
2022/05/29 05:16:01;;;;;;;1.65;1.55;;;;;;;26.73;46.60;101304.66;4154012;28;20049;-67
2022/05/29 05:18:06;;;;;;;1.75;1.65;;;;;;;26.73;46.31;101299.88;4170848;28;20037;-67
2022/05/29 05:20:08;;;;;;;;;;;;;;;26.71;46.51;101301.31;4172571;28;20042;-66
2022/05/29 05:22:10;;;;;;;2.10;1.90;;;;;;;26.77;46.30;101302.91;4179802;28;20269;-67
2022/05/29 05:24:12;;;;;;;1.60;1.42;;;;;;;26.77;46.29;101300.09;4170896;28;20033;-67
2022/05/29 05:26:30;;;;;;;1.85;1.67;;;;;;;26.76;46.61;101304.88;4171469;28;20076;-66
2022/05/29 05:28:35;;;;;;;1.92;1.60;;;;;;;26.76;46.30;101304.88;4153648;28;20081;-67
2022/05/29 05:30:48;;;;;;;1.67;1.58;;;;;;;26.75;46.45;101300.38;4171712;28;20041;-68
2022/05/29 05:32:50;;;;;;;1.70;1.60;;;;;;;26.74;46.53;101295.94;4154092;28;20506;-65
2022/05/29 05:34:51;;;;;;;1.80;1.50;;;;;;;26.75;46.70;101302.38;4169932;28;20045;-66
2022/05/29 05:36:56;;;;;;;1.67;1.58;;;;;;;26.74;46.44;101304.34;4166162;28;20045;-67
2022/05/29 05:38:58;;;;;;;2.70;1.65;;;;;;;26.74;46.78;101300.72;4165694;28;20099;-67
2022/05/29 05:41:02;;;;;;;1.90;1.80;;;;;;;26.73;46.68;101299.88;4167195;28;20072;-68
2022/05/29 05:43:03;;;;;;;1.83;1.73;;;;;;;26.74;46.58;101289.47;4167523;28;20037;-67
2022/05/29 05:45:07;;;;;;;1.80;1.70;;;;;;;26.72;46.60;101281.38;4167706;28;20091;-68
2022/05/29 05:47:09;;;;;;;1.70;1.60;;;;;;;26.72;46.51;101274.94;4167629;28;20476;-68
2022/05/29 05:49:11;;;;;;;1.80;1.70;;;;;;;26.72;46.65;101269.31;4167070;28;20076;-67
2022/05/29 05:51:17;;;;;;;1.95;1.77;;;;;;;26.65;46.43;101258.50;4149469;28;20099;-68
2022/05/29 05:53:19;;;;;;;1.70;1.60;;;;;;;26.72;46.76;101272.97;4167090;28;20095;-67
2022/05/29 05:55:20;;;;;;;2.00;1.80;;;;;;;26.71;46.45;101274.13;4166158;28;20099;-66
2022/05/29 05:57:22;;;;;;;1.60;1.50;;;;;;;26.67;46.53;101267.47;4166367;28;20041;-67
2022/05/29 05:59:23;;;;;;;1.70;1.60;;;;;;;26.70;46.46;101280.84;4148740;28;20042;-67
2022/05/29 06:01:25;;;;;;;1.90;1.80;;;;;;;26.71;46.35;101290.97;4164863;28;20100;-68
2022/05/29 06:03:27;;;;;;;2.22;1.65;;;;;;;26.71;46.52;101302.19;4167320;28;20072;-68
2022/05/29 06:05:28;;;;;;;2.08;1.88;;;;;;;26.69;46.44;101310.06;4166005;28;20432;-67
2022/05/29 06:07:29;;;;;;;1.98;1.80;;;;;;;26.71;46.29;101310.59;4165671;28;20026;-68
2022/05/29 06:09:31;;;;;;;1.90;1.80;;;;;;;26.71;46.52;101310.59;4165508;28;20103;-68
2022/05/29 06:11:39;;;;;;;2.05;1.80;;;;;;;26.71;46.49;101319.03;4173384;28;20083;-68
2022/05/29 06:13:41;;;;;;;1.90;1.80;;;;;;;26.70;46.70;101313.72;4181570;28;20041;-68
2022/05/29 06:15:44;;;;;;;1.80;1.70;;;;;;;26.70;46.60;101311.72;4178569;28;20443;-68
2022/05/29 06:17:48;;;;;;;2.00;1.90;;;;;;;26.64;46.40;101301.75;4181080;28;20045;-68
2022/05/29 06:19:52;;;;;;;1.70;1.60;;;;;;;26.70;46.33;101316.50;4181474;28;20107;-67
2022/05/29 06:21:57;;;;;;;2.08;1.95;;;;;;;26.70;46.83;101322.94;4178288;28;20045;-67
2022/05/29 06:24:03;;;;;;;1.67;1.58;;;;;;;26.71;46.47;101329.41;4164876;28;20025;-67
2022/05/29 06:26:07;;;;;;;1.80;1.70;;;;;;;26.70;46.37;101317.34;4165038;28;20091;-67
2022/05/29 06:28:09;;;;;;;1.60;1.50;;;;;;;26.70;46.61;101334.19;4163355;28;20099;-67
2022/05/29 06:30:14;;;;;;;1.77;1.67;;;;;;;26.69;46.39;101332.53;4164825;28;20041;-67
2022/05/29 06:32:15;;;;;;;1.80;1.70;;;;;;;26.70;46.62;101336.16;4164005;28;20204;-68
2022/05/29 06:34:17;;;;;;;2.35;1.52;;;;;;;26.69;46.35;101326.91;4169304;28;20045;-65
2022/05/29 06:36:24;;;;;;;1.70;1.60;;;;;;;26.68;46.67;101333.69;4181601;28;20040;-66
2022/05/29 06:38:25;;;;;;;1.85;1.75;;;;;;;26.59;46.40;101315.91;4181390;28;20041;-66
2022/05/29 06:40:26;;;;;;;1.70;1.60;;;;;;;26.68;46.58;101330.88;4181629;28;20412;-66
2022/05/29 06:42:28;;;;;;;1.70;1.60;;;;;;;26.64;46.37;101324.22;4181182;28;20107;-67
2022/05/29 06:44:29;;;;;;;1.67;1.55;;;;;;;26.67;46.74;101334.00;4165379;28;20087;-68
2022/05/29 06:46:30;;;;;;;1.60;1.50;;;;;;;26.63;46.73;101328.16;4164476;28;20516;-68
2022/05/29 06:48:33;;;;;;;1.45;1.35;;;;;;;26.67;46.72;101337.63;4165046;28;20440;-68
2022/05/29 06:50:35;;;;;;;1.45;1.35;;;;;;;26.63;46.56;101333.78;4164709;28;20099;-68
2022/05/29 06:52:39;;;;;;;1.48;1.38;;;;;;;26.61;46.47;101327.63;4164202;28;20049;-66
2022/05/29 06:54:40;;;;;;;;;;;;;;;26.65;46.83;101342.72;4165022;28;20053;-66
2022/05/29 06:56:42;;;;;;;1.73;1.63;;;;;;;26.69;46.26;101352.19;4163989;28;19913;-67
2022/05/29 06:58:43;;;;;;;1.70;1.60;;;;;;;26.70;46.44;101351.03;4164596;28;20448;-68
2022/05/29 07:07:37;;;;;;;1.63;1.52;;;;;;;26.66;46.48;101352.78;4164622;28;20033;-68
2022/05/29 07:09:39;;;;;;;1.90;1.70;;;;;;;26.67;46.86;101345.22;4163925;28;20103;-68
2022/05/29 07:11:42;;;;;;;1.80;1.70;;;;;;;26.65;46.48;101350.31;4162209;28;20121;-67
2022/05/29 07:13:44;;;;;;;1.40;1.30;;;;;;;26.65;46.69;101350.31;4163458;28;20087;-67
2022/05/29 07:15:45;;;;;;;1.90;1.80;;;;;;;26.65;46.69;101353.94;4164942;28;20443;-67
2022/05/29 07:17:49;;;;;;;1.73;1.63;;;;;;;26.65;46.34;101358.72;4163975;28;20033;-67
2022/05/29 07:19:51;;;;;;;2.07;1.60;;;;;;;26.65;46.69;101358.72;4163766;28;20539;-67
2022/05/29 07:21:57;;;;;;;1.83;1.58;;;;;;;26.65;46.69;101358.72;4164582;28;20045;-67
2022/05/29 07:23:58;;;;;;;1.50;1.40;;;;;;;26.65;46.78;101358.72;4162357;28;20076;-67
2022/05/29 07:25:59;;;;;;;1.70;1.60;;;;;;;26.64;46.47;101357.91;4164350;28;20046;-67
2022/05/29 07:28:05;;;;;;;1.50;1.40;;;;;;;26.64;46.73;101363.50;4163679;28;20088;-67
2022/05/29 07:30:07;;;;;;;1.77;1.67;;;;;;;26.62;46.68;101348.97;4163461;28;20103;-67
2022/05/29 07:32:10;;;;;;;1.73;1.63;;;;;;;26.63;46.73;101356.25;4164152;28;20473;-67
2022/05/29 07:34:15;;;;;;;1.77;1.67;;;;;;;26.63;46.73;101359.03;4164395;28;20428;-67
2022/05/29 07:36:19;;;;;;;1.83;1.73;;;;;;;26.63;46.37;101345.00;4172693;28;20029;-67
2022/05/29 07:38:23;;;;;;;1.50;1.40;;;;;;;26.63;46.51;101361.84;4163943;28;20034;-67
2022/05/29 07:40:25;;;;;;;1.67;1.45;;;;;;;26.61;46.58;101356.53;4156907;28;20053;-67
2022/05/29 07:44:45;;;;;;;2.30;2.13;;;;;;;26.62;46.68;101357.38;4165302;28;20095;-67
2022/05/29 07:46:47;;;;;;;1.70;1.60;;;;;;;26.58;46.71;101361.94;4163423;28;20041;-67
2022/05/29 07:48:49;;;;;;;1.60;1.50;;;;;;;26.63;46.40;101373.06;4163925;28;20033;-67
2022/05/29 07:50:51;;;;;;;1.92;1.80;;;;;;;26.63;46.65;101372.25;4164367;28;20535;-67
2022/05/29 07:52:54;;;;;;;2.30;1.73;;;;;;;26.61;46.52;101369.72;4163439;28;20512;-67
2022/05/29 07:54:55;;;;;;;1.60;1.50;;;;;;;26.62;46.60;101377.03;4174515;28;20391;-67
2022/05/29 07:56:57;;;;;;;1.63;1.52;;;;;;;26.61;46.83;101364.13;4179961;28;20033;-67
2022/05/29 07:58:58;;;;;;;2.05;1.52;;;;;;;26.60;46.60;101373.69;4180250;28;20450;-67
2022/05/29 08:01:01;;;;;;;1.60;1.50;;;;;;;26.60;46.88;101368.91;4180659;28;20102;-68
2022/05/29 08:03:03;;;;;;;1.65;1.55;;;;;;;26.41;46.59;101344.84;4175586;28;20547;-67
2022/05/29 08:05:07;;;;;;;1.58;1.40;;;;;;;26.60;46.34;101370.88;4162591;28;20107;-67
2022/05/29 08:07:09;;;;;;;1.60;1.50;;;;;;;26.55;46.60;101370.97;4176466;28;20452;-67
2022/05/29 08:09:13;;;;;;;1.70;1.60;;;;;;;26.59;46.29;101377.66;4163004;28;20471;-67
2022/05/29 08:11:17;;;;;;;1.50;1.40;;;;;;;26.59;46.58;101378.47;4164162;28;20041;-67
2022/05/29 08:13:18;;;;;;;1.97;1.77;;;;;;;26.60;46.78;101390.53;4163234;28;20389;-67
2022/05/29 08:15:20;;;;;;;1.42;1.30;;;;;;;26.59;46.71;101389.69;4164187;28;20118;-67
2022/05/29 08:17:24;;;;;;;1.52;1.42;;;;;;;26.60;46.55;101401.75;4163359;28;20451;-67
2022/05/29 08:19:25;;;;;;;1.70;1.60;;;;;;;26.58;46.76;101390.03;4163319;28;20454;-67
2022/05/29 08:21:26;;;;;;;2.65;1.75;;;;;;;26.60;46.48;101404.56;4164146;28;20471;-67
2022/05/29 08:23:28;;;;;;;1.65;1.55;;;;;;;26.59;46.61;101394.47;4163487;28;20038;-67
2022/05/29 08:32:38;;;;;;;1.70;1.60;;;;;;;26.58;46.79;101387.22;4166683;28;20091;-67
2022/05/29 08:34:39;;;;;;;1.67;1.58;;;;;;;26.55;46.54;101385.00;4166818;28;20107;-67
2022/05/29 08:36:43;;;;;;;1.80;1.70;;;;;;;26.50;46.73;101387.91;4167661;28;20110;-67
2022/05/29 08:38:47;;;;;;;1.50;1.40;;;;;;;26.58;46.42;101404.06;4165811;28;20045;-67
2022/05/29 08:41:05;;;;;;;1.80;1.70;;;;;;;26.57;46.80;101403.22;4163841;28;20104;-67
2022/05/29 08:43:11;;;;;;;1.65;1.55;;;;;;;26.57;46.60;101396.75;4165451;28;20049;-67
2022/05/29 08:45:19;;;;;;;1.63;1.52;;;;;;;26.53;46.73;101398.53;4166113;28;20480;-67
2022/05/29 08:47:25;;;;;;;1.38;1.27;;;;;;;26.55;46.82;101405.50;4165526;28;20091;-67
2022/05/29 08:49:32;;;;;;;1.50;1.40;;;;;;;26.57;46.61;101413.59;4166027;28;20369;-67
2022/05/29 08:51:58;;;;;;;1.70;1.60;;;;;;;26.56;46.74;101417.53;4166208;28;20535;-67
2022/05/29 08:54:11;;;;;;;1.52;1.42;;;;;;;26.56;46.67;101414.75;4165390;28;20457;-67
2022/05/29 08:56:21;;;;;;;2.03;1.67;;;;;;;26.56;46.33;101423.16;4166047;28;20103;-68
2022/05/29 08:58:52;;;;;;;1.60;1.50;;;;;;;26.55;46.61;101433.56;4166825;28;20025;-68
2022/05/29 09:01:06;;;;;;;1.90;1.80;;;;;;;26.56;46.63;101435.22;4165000;28;20045;-68
2022/05/29 09:03:10;;;;;;;1.50;1.40;;;;;;;26.57;46.70;101430.44;4165835;28;20440;-68
2022/05/29 09:05:36;;;;;;;1.57;1.47;;;;;;;26.54;46.51;101436.69;4165477;28;20041;-68
2022/05/29 09:07:40;;;;;;;1.77;1.67;;;;;;;26.47;46.50;101420.22;4165552;28;20037;-68
2022/05/29 09:09:53;;;;;;;1.70;1.58;;;;;;;26.54;46.46;101434.69;4165868;28;20107;-68
2022/05/29 09:12:10;;;;;;;1.70;1.60;;;;;;;26.54;46.62;101443.13;4166111;28;20038;-68
2022/05/29 09:14:32;;;;;;;1.60;1.50;;;;;;;26.56;46.63;101445.63;4166122;28;20041;-68
2022/05/29 09:16:44;;;;;;;1.80;1.70;;;;;;;26.55;46.61;101447.59;4164355;28;20053;-68
2022/05/29 09:18:56;;;;;;;1.55;1.40;;;;;;;26.49;46.55;101440.41;4165794;28;20539;-68
2022/05/29 09:21:03;;;;;;;1.60;1.50;;;;;;;26.55;46.54;101450.41;4165912;28;20481;-68
2022/05/29 09:23:09;;;;;;;1.77;1.65;;;;;;;26.55;46.84;101455.19;4160538;28;20049;-67
2022/05/29 09:25:23;;;;;;;1.45;1.35;;;;;;;26.54;46.63;101453.53;4165790;28;20489;-68
2022/05/29 09:27:25;;;;;;;1.63;1.52;;;;;;;26.42;46.73;101431.50;4159118;28;20493;-68
2022/05/29 09:29:30;;;;;;;1.67;1.58;;;;;;;26.54;46.46;101461.94;4174376;28;20041;-67
2022/05/29 09:31:33;;;;;;;2.13;1.92;;;;;;;26.55;46.64;101472.03;4182322;28;20037;-67
2022/05/29 09:33:35;;;;;;;1.70;1.60;;;;;;;26.54;46.68;101473.16;4174863;28;20054;-68
2022/05/29 09:36:15;;;;;;;2.08;1.70;;;;;;;26.52;46.67;101481.03;4165571;28;20041;-68
2022/05/29 09:38:36;;;;;;;1.60;1.50;;;;;;;26.52;46.77;101483.84;4115272;28;20382;-68
2022/05/29 09:40:57;;;;;;;1.55;1.45;;;;;;;26.53;46.43;101482.72;4167869;28;20107;-68
2022/05/29 09:43:13;;;;;;;1.60;1.50;;;;;;;26.52;46.59;101486.66;4181496;28;20045;-68
2022/05/29 09:45:25;;;;;;;2.65;1.60;;;;;;;26.53;46.50;101486.38;4181975;28;20159;-68
2022/05/29 09:50:11;;;;;;;1.65;1.55;;;;;;;26.51;46.45;101488.63;4166429;28;20092;-68
2022/05/29 09:52:24;;;;;;;1.65;1.55;;;;;;;26.52;46.53;101500.69;4164941;28;20095;-68
2022/05/29 09:54:38;;;;;;;1.55;1.45;;;;;;;26.52;46.43;101506.31;4181946;28;20091;-67
2022/05/29 09:56:39;;;;;;;1.77;1.67;;;;;;;26.51;46.77;101504.66;4180740;28;20048;-66
2022/05/29 09:58:43;;;;;;;1.75;1.65;;;;;;;26.52;46.43;101509.09;4181076;28;20106;-67
2022/05/29 10:01:01;;;;;;;2.20;1.67;;;;;;;26.50;46.92;101508.59;4181544;28;20090;-68
2022/05/29 10:03:09;;;;;;;2.10;1.90;;;;;;;26.47;46.76;101512.00;4181260;28;20733;-68
2022/05/29 10:05:41;;;;;;;1.65;1.55;;;;;;;26.49;46.61;101512.53;4173900;28;20469;-67
2022/05/29 10:07:46;;;;;;;1.58;1.48;;;;;;;26.50;46.42;101520.66;4176248;28;20471;-68
2022/05/29 10:09:58;;;;;;;1.60;1.50;;;;;;;26.51;46.80;101521.47;4171529;28;20107;-68
2022/05/29 10:12:15;;;;;;;1.70;1.60;;;;;;;26.40;46.75;101492.72;4165493;28;20041;-68
2022/05/29 10:14:24;;;;;;;1.52;1.42;;;;;;;26.51;46.73;101516.69;4165415;28;20485;-68
2022/05/29 10:16:35;;;;;;;1.60;1.50;;;;;;;26.51;46.66;101521.47;4164937;28;20103;-67
2022/05/29 10:18:42;;;;;;;1.83;1.67;;;;;;;26.51;46.55;101521.47;4165457;28;20045;-68
2022/05/29 10:20:44;;;;;;;1.63;1.52;;;;;;;26.46;46.45;101515.97;4165390;28;20034;-68